Terminal Aerodrome Forecast
Issued by NWS Cleveland, OH

Home | Current Version | Previous Version | Graphics & Text | Print | Product List | Glossary On
Versions: 1 2 3 4 5 6 7 8 9 10 11 12 13 14 15 16 17 18 19 20
000
FTUS41 KCLE 231700
TAFERI
TAF
KERI 231722Z 2318/2418 28012G18KT P6SM SCT025
      TEMPO 2318/2319 BKN025
     FM232000 28012G16KT P6SM SKC
     FM240000 32004KT P6SM SKC
     FM241500 32006KT P6SM SKC=

USA.gov is the U.S. government's official web portal to all federal, state and local government web resources and services.